sensor_id;sensor_type;location;lat;lon;timestamp;P1;durP1;ratioP1;P2;durP2;ratioP2
22144;SDS011;11238;48.730;11.566;2024-02-28T00:00:05;25.23;;;12.13;;
22144;SDS011;11238;48.730;11.566;2024-02-28T00:02:31;21.45;;;12.10;;
22144;SDS011;11238;48.730;11.566;2024-02-28T00:04:57;22.25;;;12.35;;
22144;SDS011;11238;48.730;11.566;2024-02-28T00:07:25;23.05;;;11.65;;
22144;SDS011;11238;48.730;11.566;2024-02-28T00:09:51;21.55;;;11.60;;
22144;SDS011;11238;48.730;11.566;2024-02-28T00:12:17;25.42;;;12.30;;
22144;SDS011;11238;48.730;11.566;2024-02-28T00:14:43;23.30;;;12.38;;
22144;SDS011;11238;48.730;11.566;2024-02-28T00:17:11;24.98;;;12.55;;
22144;SDS011;11238;48.730;11.566;2024-02-28T00:19:38;22.13;;;12.15;;
22144;SDS011;11238;48.730;11.566;2024-02-28T00:22:04;25.48;;;12.45;;
22144;SDS011;11238;48.730;11.566;2024-02-28T00:24:30;24.30;;;13.10;;
22144;SDS011;11238;48.730;11.566;2024-02-28T00:26:56;24.92;;;12.63;;
22144;SDS011;11238;48.730;11.566;2024-02-28T00:29:21;27.33;;;12.52;;
22144;SDS011;11238;48.730;11.566;2024-02-28T00:31:47;24.13;;;12.80;;
22144;SDS011;11238;48.730;11.566;2024-02-28T00:34:13;26.38;;;12.88;;
22144;SDS011;11238;48.730;11.566;2024-02-28T00:36:39;24.42;;;13.02;;
22144;SDS011;11238;48.730;11.566;2024-02-28T00:39:05;26.17;;;13.15;;
22144;SDS011;11238;48.730;11.566;2024-02-28T00:41:30;23.50;;;12.70;;
22144;SDS011;11238;48.730;11.566;2024-02-28T00:43:56;26.38;;;13.05;;
22144;SDS011;11238;48.730;11.566;2024-02-28T00:46:22;26.73;;;12.75;;
22144;SDS011;11238;48.730;11.566;2024-02-28T00:48:48;26.63;;;13.15;;
22144;SDS011;11238;48.730;11.566;2024-02-28T00:51:14;26.45;;;13.20;;
22144;SDS011;11238;48.730;11.566;2024-02-28T00:53:39;25.02;;;13.05;;
22144;SDS011;11238;48.730;11.566;2024-02-28T00:56:06;27.80;;;13.70;;
22144;SDS011;11238;48.730;11.566;2024-02-28T00:58:32;22.17;;;12.20;;
22144;SDS011;11238;48.730;11.566;2024-02-28T01:00:58;25.50;;;13.40;;
22144;SDS011;11238;48.730;11.566;2024-02-28T01:03:24;27.77;;;12.77;;
22144;SDS011;11238;48.730;11.566;2024-02-28T01:05:50;26.88;;;13.63;;
22144;SDS011;11238;48.730;11.566;2024-02-28T01:08:16;22.10;;;12.60;;
22144;SDS011;11238;48.730;11.566;2024-02-28T01:10:43;29.13;;;14.00;;
22144;SDS011;11238;48.730;11.566;2024-02-28T01:13:09;28.63;;;13.50;;
22144;SDS011;11238;48.730;11.566;2024-02-28T01:15:35;29.90;;;15.05;;
22144;SDS011;11238;48.730;11.566;2024-02-28T01:18:01;27.25;;;13.90;;
22144;SDS011;11238;48.730;11.566;2024-02-28T01:20:26;27.17;;;14.57;;
22144;SDS011;11238;48.730;11.566;2024-02-28T01:22:52;26.42;;;14.10;;
22144;SDS011;11238;48.730;11.566;2024-02-28T01:25:18;30.77;;;14.52;;
22144;SDS011;11238;48.730;11.566;2024-02-28T01:27:44;26.80;;;15.10;;
22144;SDS011;11238;48.730;11.566;2024-02-28T01:30:10;31.33;;;15.50;;
22144;SDS011;11238;48.730;11.566;2024-02-28T01:32:36;28.98;;;14.73;;
22144;SDS011;11238;48.730;11.566;2024-02-28T01:35:03;30.50;;;14.98;;
22144;SDS011;11238;48.730;11.566;2024-02-28T01:37:29;29.73;;;15.70;;
22144;SDS011;11238;48.730;11.566;2024-02-28T01:39:55;31.40;;;15.88;;
22144;SDS011;11238;48.730;11.566;2024-02-28T01:42:21;29.58;;;15.20;;
22144;SDS011;11238;48.730;11.566;2024-02-28T01:44:47;28.67;;;14.13;;
22144;SDS011;11238;48.730;11.566;2024-02-28T01:47:14;32.08;;;14.80;;
22144;SDS011;11238;48.730;11.566;2024-02-28T01:49:40;30.30;;;13.95;;
22144;SDS011;11238;48.730;11.566;2024-02-28T01:52:07;31.15;;;14.85;;
22144;SDS011;11238;48.730;11.566;2024-02-28T01:54:34;26.73;;;14.20;;
22144;SDS011;11238;48.730;11.566;2024-02-28T01:57:01;30.70;;;15.35;;
22144;SDS011;11238;48.730;11.566;2024-02-28T01:59:27;29.10;;;14.38;;
22144;SDS011;11238;48.730;11.566;2024-02-28T02:01:55;29.13;;;14.55;;
22144;SDS011;11238;48.730;11.566;2024-02-28T02:04:21;28.55;;;14.90;;
22144;SDS011;11238;48.730;11.566;2024-02-28T02:06:47;29.23;;;14.18;;
22144;SDS011;11238;48.730;11.566;2024-02-28T02:09:14;29.27;;;14.55;;
22144;SDS011;11238;48.730;11.566;2024-02-28T02:11:41;32.85;;;15.15;;
22144;SDS011;11238;48.730;11.566;2024-02-28T02:14:08;28.33;;;14.77;;
22144;SDS011;11238;48.730;11.566;2024-02-28T02:16:35;28.00;;;13.68;;
22144;SDS011;11238;48.730;11.566;2024-02-28T02:19:01;27.98;;;14.13;;
22144;SDS011;11238;48.730;11.566;2024-02-28T02:21:34;30.83;;;15.55;;
22144;SDS011;11238;48.730;11.566;2024-02-28T02:24:03;28.50;;;14.30;;
22144;SDS011;11238;48.730;11.566;2024-02-28T02:26:29;30.10;;;14.82;;
22144;SDS011;11238;48.730;11.566;2024-02-28T02:28:55;29.65;;;15.27;;
22144;SDS011;11238;48.730;11.566;2024-02-28T02:31:21;36.20;;;16.05;;
22144;SDS011;11238;48.730;11.566;2024-02-28T02:33:47;29.60;;;15.82;;
22144;SDS011;11238;48.730;11.566;2024-02-28T02:36:13;33.15;;;15.43;;
22144;SDS011;11238;48.730;11.566;2024-02-28T02:38:39;31.20;;;15.10;;
22144;SDS011;11238;48.730;11.566;2024-02-28T02:41:05;28.40;;;14.32;;
22144;SDS011;11238;48.730;11.566;2024-02-28T02:43:30;32.53;;;14.95;;
22144;SDS011;11238;48.730;11.566;2024-02-28T02:45:56;30.42;;;15.65;;
22144;SDS011;11238;48.730;11.566;2024-02-28T02:48:22;33.05;;;16.30;;
22144;SDS011;11238;48.730;11.566;2024-02-28T02:50:48;32.40;;;15.82;;
22144;SDS011;11238;48.730;11.566;2024-02-28T02:53:14;28.10;;;14.38;;
22144;SDS011;11238;48.730;11.566;2024-02-28T02:55:40;31.88;;;14.68;;
22144;SDS011;11238;48.730;11.566;2024-02-28T02:58:06;32.13;;;15.27;;
22144;SDS011;11238;48.730;11.566;2024-02-28T03:00:37;27.75;;;13.52;;
22144;SDS011;11238;48.730;11.566;2024-02-28T03:03:03;29.13;;;14.77;;
22144;SDS011;11238;48.730;11.566;2024-02-28T03:05:30;30.60;;;15.00;;
22144;SDS011;11238;48.730;11.566;2024-02-28T03:08:01;31.23;;;14.18;;
22144;SDS011;11238;48.730;11.566;2024-02-28T03:10:32;25.13;;;14.02;;
22144;SDS011;11238;48.730;11.566;2024-02-28T03:12:58;33.03;;;16.02;;
22144;SDS011;11238;48.730;11.566;2024-02-28T03:15:26;28.48;;;14.77;;
22144;SDS011;11238;48.730;11.566;2024-02-28T03:17:54;27.58;;;14.13;;
22144;SDS011;11238;48.730;11.566;2024-02-28T03:20:24;30.88;;;15.10;;
22144;SDS011;11238;48.730;11.566;2024-02-28T03:22:51;25.23;;;13.98;;
22144;SDS011;11238;48.730;11.566;2024-02-28T03:25:20;26.13;;;13.35;;
22144;SDS011;11238;48.730;11.566;2024-02-28T03:27:49;26.25;;;12.90;;
22144;SDS011;11238;48.730;11.566;2024-02-28T03:30:15;26.90;;;13.38;;
22144;SDS011;11238;48.730;11.566;2024-02-28T03:32:41;32.75;;;14.90;;
22144;SDS011;11238;48.730;11.566;2024-02-28T03:35:09;29.40;;;14.27;;
22144;SDS011;11238;48.730;11.566;2024-02-28T03:37:35;28.30;;;14.75;;
22144;SDS011;11238;48.730;11.566;2024-02-28T03:40:10;27.48;;;14.63;;
22144;SDS011;11238;48.730;11.566;2024-02-28T03:42:43;28.23;;;13.60;;
22144;SDS011;11238;48.730;11.566;2024-02-28T03:45:11;27.30;;;14.40;;
22144;SDS011;11238;48.730;11.566;2024-02-28T03:47:43;33.63;;;15.85;;
22144;SDS011;11238;48.730;11.566;2024-02-28T03:50:09;33.50;;;15.95;;
22144;SDS011;11238;48.730;11.566;2024-02-28T03:52:36;31.67;;;15.73;;
22144;SDS011;11238;48.730;11.566;2024-02-28T03:55:04;31.73;;;15.82;;
22144;SDS011;11238;48.730;11.566;2024-02-28T03:57:32;34.78;;;16.15;;
22144;SDS011;11238;48.730;11.566;2024-02-28T04:00:04;32.45;;;15.85;;
22144;SDS011;11238;48.730;11.566;2024-02-28T04:02:37;30.70;;;15.27;;
22144;SDS011;11238;48.730;11.566;2024-02-28T04:05:03;33.28;;;16.08;;
22144;SDS011;11238;48.730;11.566;2024-02-28T04:07:29;35.67;;;16.05;;
22144;SDS011;11238;48.730;11.566;2024-02-28T04:09:58;32.65;;;16.52;;
22144;SDS011;11238;48.730;11.566;2024-02-28T04:12:27;38.75;;;17.23;;
22144;SDS011;11238;48.730;11.566;2024-02-28T04:14:53;36.50;;;16.90;;
22144;SDS011;11238;48.730;11.566;2024-02-28T04:17:19;34.55;;;16.48;;
22144;SDS011;11238;48.730;11.566;2024-02-28T04:19:45;35.25;;;17.50;;
22144;SDS011;11238;48.730;11.566;2024-02-28T04:22:13;37.53;;;17.33;;
22144;SDS011;11238;48.730;11.566;2024-02-28T04:24:39;36.85;;;17.40;;
22144;SDS011;11238;48.730;11.566;2024-02-28T04:27:05;37.60;;;17.20;;
22144;SDS011;11238;48.730;11.566;2024-02-28T04:29:44;34.90;;;16.75;;
22144;SDS011;11238;48.730;11.566;2024-02-28T04:32:13;34.80;;;16.42;;
22144;SDS011;11238;48.730;11.566;2024-02-28T04:34:39;34.88;;;16.90;;
22144;SDS011;11238;48.730;11.566;2024-02-28T04:37:05;40.00;;;18.25;;
22144;SDS011;11238;48.730;11.566;2024-02-28T04:39:31;37.63;;;16.67;;
22144;SDS011;11238;48.730;11.566;2024-02-28T04:41:57;39.03;;;18.00;;
22144;SDS011;11238;48.730;11.566;2024-02-28T04:44:23;33.95;;;16.38;;
22144;SDS011;11238;48.730;11.566;2024-02-28T04:46:49;35.65;;;17.02;;
22144;SDS011;11238;48.730;11.566;2024-02-28T04:49:18;34.47;;;16.08;;
22144;SDS011;11238;48.730;11.566;2024-02-28T04:51:48;32.95;;;16.83;;
22144;SDS011;11238;48.730;11.566;2024-02-28T04:54:20;36.05;;;16.98;;
22144;SDS011;11238;48.730;11.566;2024-02-28T04:56:46;36.58;;;16.80;;
22144;SDS011;11238;48.730;11.566;2024-02-28T04:59:18;36.28;;;17.05;;
22144;SDS011;11238;48.730;11.566;2024-02-28T05:01:43;34.08;;;16.98;;
22144;SDS011;11238;48.730;11.566;2024-02-28T05:04:13;35.67;;;17.75;;
22144;SDS011;11238;48.730;11.566;2024-02-28T05:06:39;36.45;;;17.55;;
22144;SDS011;11238;48.730;11.566;2024-02-28T05:09:05;32.63;;;16.80;;
22144;SDS011;11238;48.730;11.566;2024-02-28T05:11:30;37.35;;;17.80;;
22144;SDS011;11238;48.730;11.566;2024-02-28T05:13:57;40.05;;;17.70;;
22144;SDS011;11238;48.730;11.566;2024-02-28T05:16:26;32.65;;;16.52;;
22144;SDS011;11238;48.730;11.566;2024-02-28T05:18:59;36.85;;;17.70;;
22144;SDS011;11238;48.730;11.566;2024-02-28T05:21:24;37.60;;;17.45;;
22144;SDS011;11238;48.730;11.566;2024-02-28T05:23:50;42.30;;;17.83;;
22144;SDS011;11238;48.730;11.566;2024-02-28T05:26:19;40.60;;;17.95;;
22144;SDS011;11238;48.730;11.566;2024-02-28T05:28:51;34.55;;;17.17;;
22144;SDS011;11238;48.730;11.566;2024-02-28T05:31:24;34.70;;;17.75;;
22144;SDS011;11238;48.730;11.566;2024-02-28T05:34:05;36.50;;;17.15;;
22144;SDS011;11238;48.730;11.566;2024-02-28T05:36:37;39.60;;;17.58;;
22144;SDS011;11238;48.730;11.566;2024-02-28T05:39:09;42.28;;;18.60;;
22144;SDS011;11238;48.730;11.566;2024-02-28T05:41:59;39.25;;;17.65;;
22144;SDS011;11238;48.730;11.566;2024-02-28T05:44:27;39.13;;;17.70;;
22144;SDS011;11238;48.730;11.566;2024-02-28T05:46:58;33.72;;;17.48;;
22144;SDS011;11238;48.730;11.566;2024-02-28T05:49:27;40.85;;;17.83;;
22144;SDS011;11238;48.730;11.566;2024-02-28T05:51:59;38.33;;;17.17;;
22144;SDS011;11238;48.730;11.566;2024-02-28T05:54:27;37.15;;;17.02;;
22144;SDS011;11238;48.730;11.566;2024-02-28T05:56:56;37.72;;;17.42;;
22144;SDS011;11238;48.730;11.566;2024-02-28T05:59:30;36.47;;;17.05;;
22144;SDS011;11238;48.730;11.566;2024-02-28T06:01:56;36.83;;;15.60;;
22144;SDS011;11238;48.730;11.566;2024-02-28T06:04:22;36.13;;;16.50;;
22144;SDS011;11238;48.730;11.566;2024-02-28T06:06:54;33.38;;;16.63;;
22144;SDS011;11238;48.730;11.566;2024-02-28T06:09:21;33.80;;;16.10;;
22144;SDS011;11238;48.730;11.566;2024-02-28T06:11:47;36.08;;;16.80;;
22144;SDS011;11238;48.730;11.566;2024-02-28T06:14:12;37.08;;;15.90;;
22144;SDS011;11238;48.730;11.566;2024-02-28T06:16:40;35.08;;;17.35;;
22144;SDS011;11238;48.730;11.566;2024-02-28T06:19:06;34.50;;;16.52;;
22144;SDS011;11238;48.730;11.566;2024-02-28T06:21:41;34.20;;;16.48;;
22144;SDS011;11238;48.730;11.566;2024-02-28T06:24:09;38.75;;;17.27;;
22144;SDS011;11238;48.730;11.566;2024-02-28T06:26:41;37.03;;;17.80;;
22144;SDS011;11238;48.730;11.566;2024-02-28T06:29:17;34.30;;;16.35;;
22144;SDS011;11238;48.730;11.566;2024-02-28T06:31:51;32.25;;;15.27;;
22144;SDS011;11238;48.730;11.566;2024-02-28T06:34:17;31.42;;;15.70;;
22144;SDS011;11238;48.730;11.566;2024-02-28T06:36:46;35.33;;;16.13;;
22144;SDS011;11238;48.730;11.566;2024-02-28T06:39:12;39.38;;;17.17;;
22144;SDS011;11238;48.730;11.566;2024-02-28T06:41:38;35.03;;;17.45;;
22144;SDS011;11238;48.730;11.566;2024-02-28T06:44:07;36.70;;;16.52;;
22144;SDS011;11238;48.730;11.566;2024-02-28T06:46:33;34.95;;;16.10;;
22144;SDS011;11238;48.730;11.566;2024-02-28T06:48:59;40.30;;;16.95;;
22144;SDS011;11238;48.730;11.566;2024-02-28T06:51:24;34.75;;;16.90;;
22144;SDS011;11238;48.730;11.566;2024-02-28T06:53:53;39.45;;;17.80;;
22144;SDS011;11238;48.730;11.566;2024-02-28T06:56:19;36.50;;;17.83;;
22144;SDS011;11238;48.730;11.566;2024-02-28T06:58:44;34.08;;;17.40;;
22144;SDS011;11238;48.730;11.566;2024-02-28T07:01:17;34.42;;;17.10;;
22144;SDS011;11238;48.730;11.566;2024-02-28T07:03:49;38.08;;;17.92;;
22144;SDS011;11238;48.730;11.566;2024-02-28T07:06:21;37.97;;;17.38;;
22144;SDS011;11238;48.730;11.566;2024-02-28T07:08:47;43.30;;;18.40;;
22144;SDS011;11238;48.730;11.566;2024-02-28T07:11:13;37.47;;;17.70;;
22144;SDS011;11238;48.730;11.566;2024-02-28T07:13:39;40.75;;;17.60;;
22144;SDS011;11238;48.730;11.566;2024-02-28T07:16:06;39.28;;;18.52;;
22144;SDS011;11238;48.730;11.566;2024-02-28T07:18:32;39.80;;;18.60;;
22144;SDS011;11238;48.730;11.566;2024-02-28T07:20:58;37.10;;;17.60;;
22144;SDS011;11238;48.730;11.566;2024-02-28T07:23:25;37.72;;;18.02;;
22144;SDS011;11238;48.730;11.566;2024-02-28T07:25:53;41.08;;;18.20;;
22144;SDS011;11238;48.730;11.566;2024-02-28T07:28:26;38.70;;;18.23;;
22144;SDS011;11238;48.730;11.566;2024-02-28T07:30:57;42.75;;;17.65;;
22144;SDS011;11238;48.730;11.566;2024-02-28T07:33:23;35.63;;;17.42;;
22144;SDS011;11238;48.730;11.566;2024-02-28T07:35:52;44.75;;;18.98;;
22144;SDS011;11238;48.730;11.566;2024-02-28T07:38:47;38.35;;;18.30;;
22144;SDS011;11238;48.730;11.566;2024-02-28T07:41:23;39.03;;;18.17;;
22144;SDS011;11238;48.730;11.566;2024-02-28T07:43:54;43.92;;;18.15;;
22144;SDS011;11238;48.730;11.566;2024-02-28T07:46:21;41.00;;;18.20;;
22144;SDS011;11238;48.730;11.566;2024-02-28T07:48:57;41.08;;;17.70;;
22144;SDS011;11238;48.730;11.566;2024-02-28T07:51:26;40.25;;;18.45;;
22144;SDS011;11238;48.730;11.566;2024-02-28T07:53:53;43.78;;;19.10;;
22144;SDS011;11238;48.730;11.566;2024-02-28T07:56:36;40.80;;;18.20;;
22144;SDS011;11238;48.730;11.566;2024-02-28T07:59:08;42.80;;;18.77;;
22144;SDS011;11238;48.730;11.566;2024-02-28T08:01:37;42.80;;;18.40;;
22144;SDS011;11238;48.730;11.566;2024-02-28T08:04:09;44.80;;;19.20;;
22144;SDS011;11238;48.730;11.566;2024-02-28T08:06:35;45.22;;;19.15;;
22144;SDS011;11238;48.730;11.566;2024-02-28T08:09:03;42.92;;;18.75;;
22144;SDS011;11238;48.730;11.566;2024-02-28T08:11:55;41.38;;;18.40;;
22144;SDS011;11238;48.730;11.566;2024-02-28T08:14:27;42.38;;;19.33;;
22144;SDS011;11238;48.730;11.566;2024-02-28T08:16:57;43.70;;;18.70;;
22144;SDS011;11238;48.730;11.566;2024-02-28T08:19:28;40.38;;;18.25;;
22144;SDS011;11238;48.730;11.566;2024-02-28T08:21:55;42.20;;;18.35;;
22144;SDS011;11238;48.730;11.566;2024-02-28T08:24:42;39.58;;;17.33;;
22144;SDS011;11238;48.730;11.566;2024-02-28T08:27:09;37.75;;;18.95;;
22144;SDS011;11238;48.730;11.566;2024-02-28T08:29:35;44.22;;;18.75;;
22144;SDS011;11238;48.730;11.566;2024-02-28T08:32:00;42.08;;;19.17;;
22144;SDS011;11238;48.730;11.566;2024-02-28T08:34:28;43.33;;;20.08;;
22144;SDS011;11238;48.730;11.566;2024-02-28T08:36:53;39.45;;;18.48;;
22144;SDS011;11238;48.730;11.566;2024-02-28T08:39:19;40.00;;;19.30;;
22144;SDS011;11238;48.730;11.566;2024-02-28T08:41:45;45.42;;;18.77;;
22144;SDS011;11238;48.730;11.566;2024-02-28T08:44:11;40.92;;;18.50;;
22144;SDS011;11238;48.730;11.566;2024-02-28T08:46:37;42.95;;;17.42;;
22144;SDS011;11238;48.730;11.566;2024-02-28T08:49:03;43.55;;;18.60;;
22144;SDS011;11238;48.730;11.566;2024-02-28T08:51:29;41.72;;;18.63;;
22144;SDS011;11238;48.730;11.566;2024-02-28T08:54:17;38.72;;;17.60;;
22144;SDS011;11238;48.730;11.566;2024-02-28T08:56:43;36.38;;;17.40;;
22144;SDS011;11238;48.730;11.566;2024-02-28T08:59:09;43.85;;;18.90;;
22144;SDS011;11238;48.730;11.566;2024-02-28T09:01:34;43.17;;;18.50;;
22144;SDS011;11238;48.730;11.566;2024-02-28T09:04:02;40.72;;;19.45;;
22144;SDS011;11238;48.730;11.566;2024-02-28T09:06:28;42.00;;;18.30;;
22144;SDS011;11238;48.730;11.566;2024-02-28T09:08:54;41.33;;;17.85;;
22144;SDS011;11238;48.730;11.566;2024-02-28T09:11:20;39.47;;;17.58;;
22144;SDS011;11238;48.730;11.566;2024-02-28T09:13:46;39.90;;;18.42;;
22144;SDS011;11238;48.730;11.566;2024-02-28T09:16:12;37.88;;;18.42;;
22144;SDS011;11238;48.730;11.566;2024-02-28T09:18:37;36.67;;;16.92;;
22144;SDS011;11238;48.730;11.566;2024-02-28T09:21:03;42.33;;;18.33;;
22144;SDS011;11238;48.730;11.566;2024-02-28T09:23:29;40.13;;;17.17;;
22144;SDS011;11238;48.730;11.566;2024-02-28T09:25:56;41.00;;;17.55;;
22144;SDS011;11238;48.730;11.566;2024-02-28T09:28:22;37.97;;;17.13;;
22144;SDS011;11238;48.730;11.566;2024-02-28T09:30:48;39.30;;;18.65;;
22144;SDS011;11238;48.730;11.566;2024-02-28T09:33:17;43.40;;;19.13;;
22144;SDS011;11238;48.730;11.566;2024-02-28T09:35:44;40.00;;;17.20;;
22144;SDS011;11238;48.730;11.566;2024-02-28T09:38:11;41.40;;;17.85;;
22144;SDS011;11238;48.730;11.566;2024-02-28T09:40:37;44.15;;;17.83;;
22144;SDS011;11238;48.730;11.566;2024-02-28T09:43:03;37.30;;;17.17;;
22144;SDS011;11238;48.730;11.566;2024-02-28T09:45:29;39.70;;;17.58;;
22144;SDS011;11238;48.730;11.566;2024-02-28T09:48:00;36.90;;;16.92;;
22144;SDS011;11238;48.730;11.566;2024-02-28T09:50:26;37.85;;;16.90;;
22144;SDS011;11238;48.730;11.566;2024-02-28T09:52:53;42.85;;;18.92;;
22144;SDS011;11238;48.730;11.566;2024-02-28T09:55:19;40.30;;;17.55;;
22144;SDS011;11238;48.730;11.566;2024-02-28T09:57:47;35.38;;;16.38;;
22144;SDS011;11238;48.730;11.566;2024-02-28T10:00:14;36.53;;;17.17;;
22144;SDS011;11238;48.730;11.566;2024-02-28T10:02:45;38.42;;;17.25;;
22144;SDS011;11238;48.730;11.566;2024-02-28T10:05:14;34.58;;;16.20;;
22144;SDS011;11238;48.730;11.566;2024-02-28T10:07:41;31.75;;;16.33;;
22144;SDS011;11238;48.730;11.566;2024-02-28T10:10:07;41.00;;;17.33;;
22144;SDS011;11238;48.730;11.566;2024-02-28T10:12:33;41.15;;;18.02;;
22144;SDS011;11238;48.730;11.566;2024-02-28T10:15:00;36.90;;;16.52;;
22144;SDS011;11238;48.730;11.566;2024-02-28T10:17:26;32.72;;;16.58;;
22144;SDS011;11238;48.730;11.566;2024-02-28T10:19:52;35.03;;;16.95;;
22144;SDS011;11238;48.730;11.566;2024-02-28T10:22:18;30.55;;;16.17;;
22144;SDS011;11238;48.730;11.566;2024-02-28T10:24:44;35.75;;;16.58;;
22144;SDS011;11238;48.730;11.566;2024-02-28T10:27:10;32.25;;;15.88;;
22144;SDS011;11238;48.730;11.566;2024-02-28T10:29:41;31.90;;;16.35;;
22144;SDS011;11238;48.730;11.566;2024-02-28T10:32:09;35.47;;;15.48;;
22144;SDS011;11238;48.730;11.566;2024-02-28T10:34:35;32.03;;;15.07;;
22144;SDS011;11238;48.730;11.566;2024-02-28T10:37:03;32.10;;;15.75;;
22144;SDS011;11238;48.730;11.566;2024-02-28T10:39:30;32.20;;;15.60;;
22144;SDS011;11238;48.730;11.566;2024-02-28T10:41:58;33.20;;;15.07;;
22144;SDS011;11238;48.730;11.566;2024-02-28T10:44:27;34.30;;;14.88;;
22144;SDS011;11238;48.730;11.566;2024-02-28T10:46:53;33.00;;;15.57;;
22144;SDS011;11238;48.730;11.566;2024-02-28T10:49:20;33.30;;;15.85;;
22144;SDS011;11238;48.730;11.566;2024-02-28T10:51:46;36.47;;;16.95;;
22144;SDS011;11238;48.730;11.566;2024-02-28T10:54:14;30.27;;;15.13;;
22144;SDS011;11238;48.730;11.566;2024-02-28T10:56:41;31.73;;;14.52;;
22144;SDS011;11238;48.730;11.566;2024-02-28T10:59:11;30.38;;;15.00;;
22144;SDS011;11238;48.730;11.566;2024-02-28T11:01:43;24.60;;;12.98;;
22144;SDS011;11238;48.730;11.566;2024-02-28T11:04:10;32.60;;;14.88;;
22144;SDS011;11238;48.730;11.566;2024-02-28T11:06:56;28.60;;;15.15;;
22144;SDS011;11238;48.730;11.566;2024-02-28T11:09:23;28.02;;;13.75;;
22144;SDS011;11238;48.730;11.566;2024-02-28T11:11:51;30.13;;;14.77;;
22144;SDS011;11238;48.730;11.566;2024-02-28T11:14:17;29.52;;;14.10;;
22144;SDS011;11238;48.730;11.566;2024-02-28T11:17:01;26.10;;;14.05;;
22144;SDS011;11238;48.730;11.566;2024-02-28T11:19:29;26.58;;;14.18;;
22144;SDS011;11238;48.730;11.566;2024-02-28T11:21:57;31.27;;;14.38;;
22144;SDS011;11238;48.730;11.566;2024-02-28T11:24:24;29.50;;;14.48;;
22144;SDS011;11238;48.730;11.566;2024-02-28T11:26:53;28.58;;;14.55;;
22144;SDS011;11238;48.730;11.566;2024-02-28T11:29:26;31.60;;;14.52;;
22144;SDS011;11238;48.730;11.566;2024-02-28T11:31:56;31.50;;;15.18;;
22144;SDS011;11238;48.730;11.566;2024-02-28T11:34:23;32.83;;;14.70;;
22144;SDS011;11238;48.730;11.566;2024-02-28T11:36:49;37.90;;;16.50;;
22144;SDS011;11238;48.730;11.566;2024-02-28T11:39:16;29.98;;;14.98;;
22144;SDS011;11238;48.730;11.566;2024-02-28T11:41:43;30.92;;;15.82;;
22144;SDS011;11238;48.730;11.566;2024-02-28T11:44:15;31.90;;;15.02;;
22144;SDS011;11238;48.730;11.566;2024-02-28T11:46:43;34.10;;;15.07;;
22144;SDS011;11238;48.730;11.566;2024-02-28T11:49:12;31.35;;;14.38;;
22144;SDS011;11238;48.730;11.566;2024-02-28T11:51:42;31.92;;;15.43;;
22144;SDS011;11238;48.730;11.566;2024-02-28T11:54:08;30.08;;;15.43;;
22144;SDS011;11238;48.730;11.566;2024-02-28T11:56:38;29.10;;;14.10;;
22144;SDS011;11238;48.730;11.566;2024-02-28T11:59:08;31.73;;;14.13;;
22144;SDS011;11238;48.730;11.566;2024-02-28T12:04:54;29.33;;;14.23;;
22144;SDS011;11238;48.730;11.566;2024-02-28T12:07:20;31.20;;;14.90;;
22144;SDS011;11238;48.730;11.566;2024-02-28T12:09:47;30.27;;;14.63;;
22144;SDS011;11238;48.730;11.566;2024-02-28T12:12:14;30.52;;;14.18;;
22144;SDS011;11238;48.730;11.566;2024-02-28T12:15:05;32.55;;;14.70;;
22144;SDS011;11238;48.730;11.566;2024-02-28T12:17:35;30.10;;;14.15;;
22144;SDS011;11238;48.730;11.566;2024-02-28T12:20:01;28.85;;;13.98;;
22144;SDS011;11238;48.730;11.566;2024-02-28T12:22:27;27.30;;;14.25;;
22144;SDS011;11238;48.730;11.566;2024-02-28T12:24:54;24.40;;;12.32;;
22144;SDS011;11238;48.730;11.566;2024-02-28T12:29:56;29.02;;;14.27;;
22144;SDS011;11238;48.730;11.566;2024-02-28T12:32:22;29.92;;;14.43;;
22144;SDS011;11238;48.730;11.566;2024-02-28T12:38:48;27.13;;;13.50;;
22144;SDS011;11238;48.730;11.566;2024-02-28T12:42:11;27.52;;;12.82;;
22144;SDS011;11238;48.730;11.566;2024-02-28T12:44:40;29.23;;;13.13;;
22144;SDS011;11238;48.730;11.566;2024-02-28T12:47:11;29.52;;;13.52;;
22144;SDS011;11238;48.730;11.566;2024-02-28T12:49:37;27.52;;;12.63;;
22144;SDS011;11238;48.730;11.566;2024-02-28T12:52:03;26.77;;;12.68;;
22144;SDS011;11238;48.730;11.566;2024-02-28T13:19:52;25.35;;;12.00;;
22144;SDS011;11238;48.730;11.566;2024-02-28T13:35:36;21.83;;;10.90;;
22144;SDS011;11238;48.730;11.566;2024-02-28T13:39:27;24.70;;;12.55;;
22144;SDS011;11238;48.730;11.566;2024-02-28T14:10:37;21.27;;;11.27;;
22144;SDS011;11238;48.730;11.566;2024-02-28T14:13:22;24.92;;;12.32;;
22144;SDS011;11238;48.730;11.566;2024-02-28T14:29:17;25.27;;;11.75;;
22144;SDS011;11238;48.730;11.566;2024-02-28T14:31:45;25.42;;;12.55;;
22144;SDS011;11238;48.730;11.566;2024-02-28T14:46:42;24.98;;;11.80;;
22144;SDS011;11238;48.730;11.566;2024-02-28T14:54:21;21.60;;;11.38;;
22144;SDS011;11238;48.730;11.566;2024-02-28T14:56:57;24.23;;;12.60;;
22144;SDS011;11238;48.730;11.566;2024-02-28T15:15:57;21.95;;;11.52;;
22144;SDS011;11238;48.730;11.566;2024-02-28T15:27:23;29.60;;;13.13;;
22144;SDS011;11238;48.730;11.566;2024-02-28T15:34:27;22.98;;;11.70;;
22144;SDS011;11238;48.730;11.566;2024-02-28T15:44:33;26.25;;;12.52;;
22144;SDS011;11238;48.730;11.566;2024-02-28T15:47:05;24.00;;;12.25;;
22144;SDS011;11238;48.730;11.566;2024-02-28T15:49:34;31.92;;;14.75;;
22144;SDS011;11238;48.730;11.566;2024-02-28T15:52:17;42.22;;;20.10;;
22144;SDS011;11238;48.730;11.566;2024-02-28T15:54:46;37.03;;;16.88;;
22144;SDS011;11238;48.730;11.566;2024-02-28T15:57:12;41.40;;;17.75;;
22144;SDS011;11238;48.730;11.566;2024-02-28T15:59:38;29.08;;;13.98;;
22144;SDS011;11238;48.730;11.566;2024-02-28T16:02:04;26.30;;;12.93;;
22144;SDS011;11238;48.730;11.566;2024-02-28T16:04:42;23.77;;;12.35;;
22144;SDS011;11238;48.730;11.566;2024-02-28T16:07:08;22.10;;;12.45;;
22144;SDS011;11238;48.730;11.566;2024-02-28T16:31:44;25.10;;;11.95;;
22144;SDS011;11238;48.730;11.566;2024-02-28T16:35:14;24.13;;;12.35;;
22144;SDS011;11238;48.730;11.566;2024-02-28T17:10:12;21.85;;;11.75;;
22144;SDS011;11238;48.730;11.566;2024-02-28T17:16:25;22.58;;;11.50;;
22144;SDS011;11238;48.730;11.566;2024-02-28T17:18:51;23.13;;;12.50;;
22144;SDS011;11238;48.730;11.566;2024-02-28T17:26:27;19.08;;;10.38;;
22144;SDS011;11238;48.730;11.566;2024-02-28T17:47:24;22.50;;;10.32;;
22144;SDS011;11238;48.730;11.566;2024-02-28T17:53:34;18.83;;;10.27;;
22144;SDS011;11238;48.730;11.566;2024-02-28T17:56:01;19.95;;;10.48;;
22144;SDS011;11238;48.730;11.566;2024-02-28T17:58:27;23.90;;;12.30;;
22144;SDS011;11238;48.730;11.566;2024-02-28T18:03:48;32.70;;;16.17;;
22144;SDS011;11238;48.730;11.566;2024-02-28T18:06:14;30.42;;;16.73;;
22144;SDS011;11238;48.730;11.566;2024-02-28T18:08:40;32.47;;;16.75;;
22144;SDS011;11238;48.730;11.566;2024-02-28T18:11:06;34.95;;;16.55;;